Time;durP1;ratioP1;P1;durP2;ratioP2;P2;SDS_P1;SDS_P2;PMS_P1;PMS_P2;Temp;Humidity;BMP_temperature;BMP_pressure;BME280_temperature;BME280_humidity;BME280_pressure;Samples;Min_cycle;Max_cycle;Signal;HPM_P1;HPM_P2
2022/06/14 00:03:09;;;;;;;4.27;1.30;;;26.20;39.70;;;;;;5067165;28;20445;-85
2022/06/14 00:05:42;;;;;;;6.07;1.80;;;26.20;39.70;;;;;;5066542;28;20448;-85
2022/06/14 00:08:10;;;;;;;2.87;1.30;;;26.20;39.80;;;;;;5055580;28;20538;-85
2022/06/14 00:10:38;;;;;;;3.50;1.50;;;26.20;39.70;;;;;;5055294;28;20952;-85
2022/06/14 00:13:07;;;;;;;2.30;1.30;;;26.20;39.80;;;;;;5061213;28;20490;-84
2022/06/14 00:15:35;;;;;;;2.90;1.57;;;26.20;39.80;;;;;;5071405;28;20492;-85
2022/06/14 00:18:03;;;;;;;1.63;1.20;;;26.20;39.80;;;;;;5080311;28;20420;-84
2022/06/14 00:20:31;;;;;;;2.10;1.40;;;26.20;39.90;;;;;;5076423;28;20448;-85
2022/06/14 00:22:59;;;;;;;2.53;1.30;;;26.20;39.90;;;;;;5075333;28;20482;-85
2022/06/14 00:25:29;;;;;;;1.77;1.10;;;26.20;40.00;;;;;;5074881;28;20971;-85
2022/06/14 00:27:57;;;;;;;4.50;1.20;;;26.20;40.00;;;;;;5075363;28;20489;-85
2022/06/14 00:30:26;;;;;;;1.17;1.07;;;26.10;40.00;;;;;;5067640;28;20445;-85
2022/06/14 00:32:55;;;;;;;1.20;1.10;;;26.10;40.10;;;;;;5076527;28;20487;-85
2022/06/14 00:35:23;;;;;;;1.43;1.20;;;26.10;40.20;;;;;;5075870;28;20524;-85
2022/06/14 00:37:51;;;;;;;1.20;1.10;;;26.10;40.10;;;;;;5076277;28;20430;-85
2022/06/14 00:40:21;;;;;;;1.90;1.23;;;26.10;40.20;;;;;;5075693;28;20868;-85
2022/06/14 00:42:49;;;;;;;3.13;1.57;;;26.10;40.20;;;;;;5074784;28;20462;-85
2022/06/14 00:45:54;;;;;;;1.60;1.23;;;26.10;40.20;;;;;;5079643;28;20448;-85
2022/06/14 00:48:25;;;;;;;5.83;1.07;;;26.10;40.20;;;;;;5072105;28;20966;-84
2022/06/14 00:50:57;;;;;;;3.93;1.60;;;26.00;40.40;;;;;;5073432;28;20839;-85
2022/06/14 00:53:26;;;;;;;1.47;1.30;;;26.00;41.10;;;;;;5070760;28;20424;-85
2022/06/14 00:55:56;;;;;;;4.43;1.30;;;26.00;40.30;;;;;;5060063;28;20471;-85
2022/06/14 00:58:26;;;;;;;2.67;1.20;;;26.00;40.50;;;;;;5069121;28;20520;-85
2022/06/14 01:00:57;;;;;;;1.73;1.17;;;26.00;40.40;;;;;;5066168;28;20521;-85
2022/06/14 01:03:29;;;;;;;2.70;1.33;;;26.00;40.50;;;;;;5071636;28;20456;-85
2022/06/14 01:06:08;;;;;;;2.07;1.17;;;26.00;40.50;;;;;;5071076;28;20465;-84
2022/06/14 01:08:42;;;;;;;1.53;1.30;;;25.90;40.60;;;;;;5082254;28;20448;-84
2022/06/14 01:11:11;;;;;;;8.93;1.30;;;25.90;40.60;;;;;;5088381;28;20477;-84
2022/06/14 01:13:39;;;;;;;4.03;1.63;;;25.90;40.60;;;;;;5088993;28;20500;-84
2022/06/14 01:16:08;;;;;;;1.87;1.30;;;25.90;40.60;;;;;;5082507;28;20419;-84
2022/06/14 01:18:38;;;;;;;5.67;1.40;;;25.90;40.60;;;;;;5080154;28;20563;-85
2022/06/14 01:21:06;;;;;;;1.30;0.97;;;25.90;40.60;;;;;;5074612;28;20427;-84
2022/06/14 01:23:35;;;;;;;1.70;1.40;;;25.90;40.90;;;;;;5081968;28;20465;-85
2022/06/14 01:26:10;;;;;;;1.80;1.03;;;25.90;40.80;;;;;;5081334;28;20547;-85
2022/06/14 01:28:39;;;;;;;2.60;1.47;;;25.90;40.70;;;;;;5082065;28;20460;-84
2022/06/14 01:31:06;;;;;;;1.67;1.30;;;26.00;40.70;;;;;;5083096;28;20436;-85
2022/06/14 01:33:36;;;;;;;4.50;1.20;;;26.00;40.70;;;;;;5080748;28;20446;-85
2022/06/14 01:36:07;;;;;;;1.60;1.20;;;25.90;40.80;;;;;;5069186;28;20398;-85
2022/06/14 01:38:36;;;;;;;2.20;1.20;;;25.90;40.60;;;;;;5078402;28;20450;-84
2022/06/14 01:41:07;;;;;;;2.67;1.27;;;25.90;40.70;;;;;;5080166;28;20511;-84
2022/06/14 01:43:56;;;;;;;3.00;1.10;;;26.00;40.80;;;;;;5080217;28;20448;-84
2022/06/14 01:46:25;;;;;;;2.50;1.53;;;26.00;40.90;;;;;;5079806;28;20448;-84
2022/06/14 01:51:50;;;;;;;1.37;1.27;;;25.90;40.80;;;;;;5080021;28;20485;-84
2022/06/14 01:51:50;;;;;;;2.83;1.33;;;25.90;40.90;;;;;;5077467;28;20451;-84
2022/06/14 01:54:24;;;;;;;2.30;1.33;;;25.90;40.90;;;;;;5063264;28;20427;-85
2022/06/14 01:56:58;;;;;;;1.73;1.13;;;25.90;41.00;;;;;;5059072;28;20533;-85
2022/06/14 01:59:30;;;;;;;1.93;1.00;;;25.90;41.00;;;;;;5059355;28;20424;-85
2022/06/14 02:02:00;;;;;;;4.10;1.53;;;25.90;41.00;;;;;;5058997;28;20473;-84
2022/06/14 02:04:38;;;;;;;1.27;1.17;;;25.90;41.10;;;;;;5060263;28;20458;-85
2022/06/14 02:07:14;;;;;;;1.40;1.30;;;25.90;41.00;;;;;;5059798;28;20476;-84
2022/06/14 02:09:48;;;;;;;3.30;1.30;;;25.90;41.00;;;;;;5065649;28;20453;-84
2022/06/14 02:12:19;;;;;;;1.60;1.00;;;25.90;41.10;;;;;;5073232;28;20474;-84
2022/06/14 02:14:49;;;;;;;2.40;1.47;;;25.80;41.00;;;;;;5078419;28;20428;-84
2022/06/14 02:17:19;;;;;;;6.40;1.13;;;25.80;41.10;;;;;;5083126;28;20435;-85
2022/06/14 02:19:49;;;;;;;1.43;1.20;;;25.80;41.20;;;;;;5083400;28;20431;-85
2022/06/14 02:22:20;;;;;;;1.30;1.20;;;25.80;41.30;;;;;;5080187;28;20471;-85
2022/06/14 02:24:50;;;;;;;1.50;1.40;;;25.80;41.30;;;;;;5080679;28;20446;-85
2022/06/14 02:27:19;;;;;;;3.27;1.60;;;25.80;41.40;;;;;;5080799;28;20500;-84
2022/06/14 02:29:49;;;;;;;2.87;1.30;;;25.80;41.30;;;;;;5073014;28;20447;-85
2022/06/14 02:32:18;;;;;;;1.57;1.30;;;25.80;41.40;;;;;;5080771;28;20459;-85
2022/06/14 02:34:50;;;;;;;1.00;1.00;;;25.80;41.50;;;;;;5079603;28;20434;-84
2022/06/14 02:37:20;;;;;;;3.60;1.13;;;25.80;41.50;;;;;;5078237;28;20408;-85
2022/06/14 02:39:51;;;;;;;1.40;1.30;;;25.80;41.50;;;;;;5080601;28;20840;-85
2022/06/14 02:42:21;;;;;;;4.00;1.60;;;25.70;41.50;;;;;;5083316;28;20460;-85
2022/06/14 02:44:51;;;;;;;1.10;1.00;;;25.70;41.50;;;;;;5082284;28;20453;-85
2022/06/14 02:47:21;;;;;;;1.43;1.23;;;25.70;41.60;;;;;;5076730;28;20462;-84
2022/06/14 02:49:51;;;;;;;2.80;1.20;;;25.70;41.60;;;;;;5086819;28;20468;-85
2022/06/14 02:52:21;;;;;;;2.00;1.43;;;25.70;41.70;;;;;;5085788;28;20440;-85
2022/06/14 02:54:52;;;;;;;1.30;1.20;;;25.70;41.60;;;;;;5085642;28;20574;-84
2022/06/14 02:57:24;;;;;;;2.70;1.10;;;25.70;41.70;;;;;;5085897;28;20428;-84
2022/06/14 02:59:55;;;;;;;3.00;1.37;;;25.70;41.70;;;;;;5080996;28;20454;-84
2022/06/14 03:02:31;;;;;;;1.47;1.20;;;25.70;41.80;;;;;;5071342;28;20458;-85
2022/06/14 03:05:00;;;;;;;7.13;1.30;;;25.70;42.40;;;;;;5083882;28;20419;-84
2022/06/14 03:07:30;;;;;;;1.20;1.10;;;25.70;41.70;;;;;;5083715;28;20509;-84
2022/06/14 03:09:59;;;;;;;1.70;1.13;;;25.70;41.60;;;;;;5084683;28;20536;-84
2022/06/14 03:12:34;;;;;;;1.90;1.17;;;25.60;41.70;;;;;;5084411;28;20515;-84
2022/06/14 03:15:07;;;;;;;1.00;0.97;;;25.70;41.80;;;;;;5087124;28;20399;-86
2022/06/14 03:17:40;;;;;;;2.30;1.40;;;25.70;41.80;;;;;;5075828;28;20421;-85
2022/06/14 03:20:10;;;;;;;2.00;1.30;;;25.70;41.70;;;;;;5085542;28;20460;-84
2022/06/14 03:22:42;;;;;;;1.90;1.20;;;25.60;41.80;;;;;;5085457;28;20477;-85
2022/06/14 03:25:16;;;;;;;1.30;1.20;;;25.60;41.80;;;;;;5084067;28;20844;-85
2022/06/14 03:27:47;;;;;;;4.27;1.67;;;25.70;41.90;;;;;;5084645;28;20440;-85
2022/06/14 03:30:19;;;;;;;1.30;1.20;;;25.70;41.90;;;;;;5084871;28;20441;-84
2022/06/14 03:32:50;;;;;;;4.83;1.60;;;25.60;41.90;;;;;;5084884;28;20504;-84
2022/06/14 03:35:21;;;;;;;2.30;1.00;;;25.60;41.80;;;;;;5076877;28;20432;-85
2022/06/14 03:37:49;;;;;;;1.30;1.20;;;25.70;42.50;;;;;;5082876;28;20429;-85
2022/06/14 03:40:19;;;;;;;1.43;1.20;;;25.60;41.80;;;;;;5084707;28;20424;-84
2022/06/14 03:42:48;;;;;;;4.63;1.17;;;25.60;41.90;;;;;;5085253;28;20436;-84
2022/06/14 03:45:17;;;;;;;1.27;1.17;;;25.60;42.00;;;;;;5078596;28;20439;-85
2022/06/14 03:47:45;;;;;;;2.60;1.20;;;25.60;41.90;;;;;;5072646;28;20471;-84
2022/06/14 03:50:15;;;;;;;2.37;1.47;;;25.60;42.10;;;;;;5063671;28;20446;-85
2022/06/14 03:53:08;;;;;;;3.33;1.10;;;25.60;41.80;;;;;;5072063;28;20460;-85
2022/06/14 03:55:44;;;;;;;1.60;1.40;;;25.60;42.00;;;;;;5084663;28;20537;-85
2022/06/14 03:58:21;;;;;;;2.10;1.23;;;25.60;42.10;;;;;;5087001;28;20439;-85
2022/06/14 04:00:51;;;;;;;1.60;1.33;;;25.60;42.00;;;;;;5086977;28;20478;-85
2022/06/14 04:03:44;;;;;;;1.43;1.30;;;25.60;42.00;;;;;;5088354;28;20420;-84
2022/06/14 04:06:17;;;;;;;2.03;1.20;;;25.60;42.70;;;;;;5087540;28;20466;-84
2022/06/14 04:08:53;;;;;;;1.90;1.13;;;25.60;42.00;;;;;;5087361;28;20434;-85
2022/06/14 04:11:36;;;;;;;1.20;1.10;;;25.60;42.10;;;;;;5078314;28;20431;-84
2022/06/14 04:14:12;;;;;;;3.60;1.23;;;25.60;42.10;;;;;;5085527;28;20467;-85
2022/06/14 04:16:45;;;;;;;2.20;1.20;;;25.60;42.00;;;;;;5086384;28;20427;-84
2022/06/14 04:19:20;;;;;;;2.47;1.60;;;25.60;42.10;;;;;;5086344;28;20466;-85
2022/06/14 04:21:52;;;;;;;1.03;1.03;;;25.60;42.10;;;;;;5087764;28;20436;-85
2022/06/14 04:24:22;;;;;;;1.87;1.30;;;25.50;42.00;;;;;;5086424;28;20421;-84
2022/06/14 04:26:54;;;;;;;1.40;1.30;;;25.60;42.10;;;;;;5082625;28;20463;-84
2022/06/14 04:29:24;;;;;;;1.30;1.20;;;25.60;42.10;;;;;;5080999;28;20432;-85
2022/06/14 04:31:56;;;;;;;1.60;1.50;;;25.60;42.00;;;;;;5085636;28;20477;-85
2022/06/14 04:34:26;;;;;;;0.90;0.90;;;25.60;42.20;;;;;;5085910;28;20417;-84
2022/06/14 04:36:57;;;;;;;1.40;1.27;;;25.70;42.00;;;;;;5085747;28;20438;-85
2022/06/14 04:39:28;;;;;;;3.27;1.10;;;25.70;41.90;;;;;;5080278;28;20440;-85
2022/06/14 04:42:00;;;;;;;1.50;1.30;;;25.60;42.00;;;;;;5083608;28;20444;-85
2022/06/14 04:44:31;;;;;;;2.10;1.20;;;25.70;42.00;;;;;;5075770;28;20413;-85
2022/06/14 04:47:02;;;;;;;1.30;1.20;;;25.70;42.00;;;;;;5062840;28;20468;-85
2022/06/14 04:49:32;;;;;;;3.80;1.30;;;25.70;42.10;;;;;;5063868;28;20405;-85
2022/06/14 04:52:03;;;;;;;1.67;1.43;;;25.70;42.00;;;;;;5064419;28;20470;-85
2022/06/14 04:54:34;;;;;;;2.30;1.23;;;25.70;42.00;;;;;;5062449;28;20410;-84
2022/06/14 04:57:06;;;;;;;1.33;1.23;;;25.70;42.00;;;;;;5064691;28;20437;-85
2022/06/14 04:59:35;;;;;;;1.20;1.10;;;25.70;42.10;;;;;;5073927;28;20421;-85
2022/06/14 05:02:05;;;;;;;1.17;1.07;;;25.70;42.20;;;;;;5080163;28;20527;-85
2022/06/14 05:04:36;;;;;;;1.43;1.13;;;25.70;42.10;;;;;;5081684;28;20424;-85
2022/06/14 05:07:06;;;;;;;2.30;1.40;;;25.70;42.10;;;;;;5080998;28;20423;-84
2022/06/14 05:09:35;;;;;;;1.03;1.03;;;25.70;42.00;;;;;;5081542;28;20444;-85
2022/06/14 05:12:08;;;;;;;2.77;1.40;;;25.60;42.00;;;;;;5081974;28;20480;-85
2022/06/14 05:14:38;;;;;;;1.27;1.17;;;25.70;42.10;;;;;;5081420;28;20496;-84
2022/06/14 05:17:08;;;;;;;1.53;1.43;;;25.70;42.20;;;;;;5076574;28;20409;-84
2022/06/14 05:19:48;;;;;;;3.00;1.30;;;25.70;42.10;;;;;;5082272;28;20420;-84
2022/06/14 05:22:18;;;;;;;1.50;1.40;;;25.70;42.10;;;;;;5081613;28;20455;-84
2022/06/14 05:24:47;;;;;;;1.83;1.20;;;25.70;42.00;;;;;;5081555;28;20431;-84
2022/06/14 05:27:33;;;;;;;1.33;1.23;;;25.70;42.10;;;;;;5081771;28;20424;-84
2022/06/14 05:30:03;;;;;;;2.60;1.40;;;25.70;42.20;;;;;;5080830;28;20454;-83
2022/06/14 05:32:33;;;;;;;2.33;1.40;;;25.60;42.00;;;;;;5072578;28;20457;-84
2022/06/14 05:35:10;;;;;;;1.30;1.20;;;25.70;42.10;;;;;;5080775;28;20439;-84
2022/06/14 05:37:43;;;;;;;1.63;1.30;;;25.70;42.10;;;;;;5079799;28;20533;-84
2022/06/14 05:40:13;;;;;;;1.90;1.20;;;25.70;42.10;;;;;;5074573;28;20471;-84
2022/06/14 05:42:48;;;;;;;1.13;1.03;;;25.70;42.20;;;;;;5081525;28;20431;-84
2022/06/14 05:45:18;;;;;;;3.20;1.40;;;25.70;42.30;;;;;;5081321;28;20458;-84
2022/06/14 05:47:48;;;;;;;1.73;1.27;;;25.70;42.20;;;;;;5075373;28;20474;-84
2022/06/14 05:50:18;;;;;;;1.67;1.30;;;25.70;42.10;;;;;;5084330;28;20478;-85
2022/06/14 05:52:48;;;;;;;1.40;1.30;;;25.70;42.10;;;;;;5082641;28;20457;-85
2022/06/14 05:55:18;;;;;;;2.53;1.30;;;25.70;42.10;;;;;;5083988;28;20420;-84
2022/06/14 05:57:50;;;;;;;1.77;1.30;;;25.70;42.10;;;;;;5083558;28;20469;-84
2022/06/14 06:00:19;;;;;;;1.53;1.33;;;25.70;42.10;;;;;;5083059;28;20401;-84
2022/06/14 06:02:49;;;;;;;2.70;1.73;;;25.70;42.20;;;;;;5082298;28;20498;-84
2022/06/14 06:05:19;;;;;;;1.30;1.00;;;25.70;42.00;;;;;;5074316;28;20445;-84
2022/06/14 06:07:49;;;;;;;3.40;1.50;;;25.70;42.10;;;;;;5083185;28;20441;-84
2022/06/14 06:10:19;;;;;;;1.73;1.50;;;25.80;41.90;;;;;;5080881;28;20433;-84
2022/06/14 06:12:50;;;;;;;1.47;1.20;;;25.80;42.10;;;;;;5081492;28;20483;-84
2022/06/14 06:15:19;;;;;;;2.73;1.20;;;25.80;42.10;;;;;;5080405;28;20503;-84
2022/06/14 06:17:49;;;;;;;2.33;1.40;;;25.80;41.90;;;;;;5082496;28;20409;-84
2022/06/14 06:20:23;;;;;;;1.40;1.30;;;25.80;41.90;;;;;;5080530;28;20499;-84
2022/06/14 06:22:53;;;;;;;1.53;1.43;;;25.80;41.90;;;;;;5073903;28;20430;-84
2022/06/14 06:25:24;;;;;;;1.83;1.33;;;25.80;42.00;;;;;;5081967;28;20424;-84
2022/06/14 06:27:57;;;;;;;1.90;1.47;;;25.90;41.90;;;;;;5082502;28;20487;-84
2022/06/14 06:30:26;;;;;;;1.50;1.40;;;25.90;41.80;;;;;;5083182;28;20449;-84
2022/06/14 06:32:54;;;;;;;1.83;1.37;;;25.90;42.00;;;;;;5082583;28;20452;-84
2022/06/14 06:35:23;;;;;;;3.87;1.77;;;25.90;41.90;;;;;;5077787;28;20486;-84
2022/06/14 06:37:53;;;;;;;1.27;1.17;;;25.90;41.80;;;;;;5076776;28;20519;-84
2022/06/14 06:40:22;;;;;;;4.70;1.27;;;26.00;41.80;;;;;;5068538;28;20438;-83
2022/06/14 06:42:56;;;;;;;1.63;1.37;;;26.00;42.00;;;;;;5060830;28;20473;-85
2022/06/14 06:45:26;;;;;;;2.13;1.30;;;26.10;41.70;;;;;;5060961;28;20418;-84
2022/06/14 06:47:57;;;;;;;1.73;1.27;;;26.10;41.60;;;;;;5061429;28;20456;-84
2022/06/14 06:50:26;;;;;;;1.63;1.30;;;26.10;41.60;;;;;;5059976;28;20441;-84
2022/06/14 06:52:58;;;;;;;2.47;1.30;;;26.20;41.60;;;;;;5062609;28;20474;-84
2022/06/14 06:55:35;;;;;;;1.40;1.30;;;26.20;41.50;;;;;;5070059;28;20424;-85
2022/06/14 06:58:07;;;;;;;1.43;1.33;;;26.20;41.50;;;;;;5073332;28;20542;-85
2022/06/14 07:00:35;;;;;;;3.00;1.60;;;26.20;41.40;;;;;;5081938;28;20446;-84
2022/06/14 07:03:07;;;;;;;1.23;1.23;;;26.20;41.40;;;;;;5081425;28;20464;-84
2022/06/14 07:05:35;;;;;;;1.10;1.10;;;26.20;41.40;;;;;;5081281;28;20461;-84
2022/06/14 07:08:04;;;;;;;3.47;1.40;;;26.30;41.50;;;;;;5079581;28;20513;-83
2022/06/14 07:10:36;;;;;;;1.30;1.20;;;26.30;41.40;;;;;;5081618;28;20495;-84
2022/06/14 07:13:10;;;;;;;1.93;1.40;;;26.30;41.30;;;;;;5083094;28;20469;-84
2022/06/14 07:15:39;;;;;;;1.63;1.53;;;26.40;41.40;;;;;;5073133;28;20447;-84
2022/06/14 07:18:12;;;;;;;1.50;1.37;;;26.40;41.20;;;;;;5081758;28;20423;-85
2022/06/14 07:20:48;;;;;;;1.90;1.27;;;26.50;41.20;;;;;;5081923;28;20445;-85
2022/06/14 07:23:19;;;;;;;1.67;1.30;;;26.50;41.10;;;;;;5079477;28;20538;-84
2022/06/14 07:25:53;;;;;;;2.93;1.43;;;26.60;41.10;;;;;;5081656;28;20448;-84
2022/06/14 07:28:24;;;;;;;1.77;1.63;;;26.60;41.00;;;;;;5081991;28;20563;-84
2022/06/14 07:30:53;;;;;;;1.30;1.20;;;26.60;41.00;;;;;;5075920;28;20446;-84
2022/06/14 07:33:22;;;;;;;1.97;1.30;;;26.60;41.00;;;;;;5082015;28;20416;-84
2022/06/14 07:35:52;;;;;;;2.27;1.70;;;26.60;40.90;;;;;;5082568;28;20465;-84
2022/06/14 07:38:24;;;;;;;1.30;1.20;;;26.70;40.90;;;;;;5082120;28;20533;-84
2022/06/14 07:40:55;;;;;;;2.73;1.30;;;26.70;40.80;;;;;;5082841;28;20429;-84
2022/06/14 07:43:28;;;;;;;1.63;1.53;;;26.70;40.80;;;;;;5077803;28;20507;-84
2022/06/14 07:45:57;;;;;;;1.50;1.40;;;26.80;40.80;;;;;;5083931;28;20449;-83
2022/06/14 07:48:27;;;;;;;1.60;1.40;;;26.80;40.70;;;;;;5074748;28;20435;-84
2022/06/14 07:50:57;;;;;;;1.73;1.53;;;26.90;40.70;;;;;;5083161;28;20421;-83
2022/06/14 07:53:27;;;;;;;1.93;1.30;;;26.80;40.60;;;;;;5082798;28;20469;-84
2022/06/14 07:55:56;;;;;;;1.93;1.03;;;26.80;40.70;;;;;;5082295;28;20421;-85
2022/06/14 07:58:27;;;;;;;1.30;1.20;;;26.90;40.70;;;;;;5083199;28;20413;-84
2022/06/14 08:01:10;;;;;;;1.80;1.20;;;27.00;40.60;;;;;;5082629;28;20425;-84
2022/06/14 08:03:40;;;;;;;2.60;1.50;;;27.00;40.50;;;;;;5081365;28;20461;-84
2022/06/14 08:06:10;;;;;;;1.33;1.23;;;27.00;40.30;;;;;;5074755;28;20445;-85
2022/06/14 08:08:39;;;;;;;2.40;1.13;;;27.00;40.30;;;;;;5083629;28;20480;-84
2022/06/14 08:11:09;;;;;;;1.73;1.63;;;27.00;40.40;;;;;;5081607;28;20408;-83
2022/06/14 08:13:40;;;;;;;1.27;1.17;;;27.00;40.50;;;;;;5084035;28;20447;-84
2022/06/14 08:16:09;;;;;;;1.50;1.40;;;27.00;41.10;;;;;;5083253;28;20521;-84
2022/06/14 08:18:38;;;;;;;1.50;1.40;;;27.10;40.40;;;;;;5081645;28;20442;-84
2022/06/14 08:21:08;;;;;;;1.40;1.30;;;27.20;40.20;;;;;;5063836;28;20514;-84
2022/06/14 08:23:37;;;;;;;1.67;1.50;;;27.20;40.20;;;;;;5062351;28;20508;-84
2022/06/14 08:26:07;;;;;;;1.30;1.20;;;27.20;40.10;;;;;;5061903;28;20462;-84
2022/06/14 08:28:39;;;;;;;1.40;1.30;;;27.20;40.20;;;;;;5064033;28;20433;-85
2022/06/14 08:31:11;;;;;;;1.67;1.30;;;27.10;40.30;;;;;;5062970;28;20405;-84
2022/06/14 08:33:41;;;;;;;1.30;1.20;;;27.20;40.20;;;;;;5060513;28;20409;-84
2022/06/14 08:36:10;;;;;;;1.00;1.00;;;27.30;40.10;;;;;;5061993;28;20526;-84
2022/06/14 08:38:40;;;;;;;1.37;1.23;;;27.40;40.00;;;;;;5072486;28;20458;-84
2022/06/14 08:41:20;;;;;;;2.30;1.30;;;27.30;40.00;;;;;;5082654;28;20485;-84
2022/06/14 08:43:50;;;;;;;1.70;1.40;;;27.30;40.10;;;;;;5082303;28;20412;-84
2022/06/14 08:46:21;;;;;;;2.47;1.40;;;27.30;40.00;;;;;;5081456;28;20505;-84
2022/06/14 08:48:59;;;;;;;1.30;1.20;;;27.40;40.10;;;;;;5080940;28;20422;-84
2022/06/14 08:51:31;;;;;;;1.60;1.50;;;27.40;40.00;;;;;;5079564;28;20851;-84
2022/06/14 08:54:23;;;;;;;2.00;1.20;;;27.40;40.20;;;;;;5075284;28;20425;-85
2022/06/14 08:57:17;;;;;;;6.20;1.20;;;27.50;40.10;;;;;;5071971;28;20426;-86
2022/06/14 09:00:15;;;;;;;1.40;1.30;;;27.50;39.90;;;;;;5072812;28;20409;-85
2022/06/14 09:03:21;;;;;;;1.37;1.27;;;27.50;40.00;;;;;;5077574;28;20481;-86
2022/06/14 09:06:26;;;;;;;1.93;1.20;;;27.50;40.10;;;;;;5072939;28;20452;-86
2022/06/14 09:09:11;;;;;;;2.00;1.37;;;27.40;40.00;;;;;;5072125;28;20522;-86
2022/06/14 09:12:09;;;;;;;1.80;1.50;;;27.40;40.10;;;;;;5064418;28;20468;-87
2022/06/14 09:14:54;;;;;;;1.20;1.10;;;27.50;40.10;;;;;;5073785;28;20537;-85
2022/06/14 09:17:54;;;;;;;1.13;1.00;;;27.60;40.00;;;;;;5076510;28;20520;-85
2022/06/14 09:20:30;;;;;;;2.10;1.40;;;27.70;39.80;;;;;;5075200;28;20412;-84
2022/06/14 09:23:06;;;;;;;2.37;1.20;;;27.70;39.80;;;;;;5075452;28;20447;-86
2022/06/14 09:26:13;;;;;;;1.47;1.17;;;27.90;39.70;;;;;;5075462;28;20487;-86
2022/06/14 09:28:57;;;;;;;2.17;1.40;;;28.10;39.60;;;;;;5053934;28;20545;-88
2022/06/14 09:31:32;;;;;;;1.63;1.33;;;28.20;39.40;;;;;;5073079;28;20481;-91
2022/06/14 09:34:32;;;;;;;3.43;1.50;;;28.20;39.30;;;;;;5073168;28;20416;-89
2022/06/14 09:37:15;;;;;;;2.13;1.20;;;28.20;39.20;;;;;;5072037;28;20503;-90
2022/06/14 09:40:02;;;;;;;3.60;1.43;;;28.00;39.50;;;;;;5062742;28;20505;-88
2022/06/14 09:42:57;;;;;;;5.60;1.37;;;27.90;39.90;;;;;;5070891;28;20445;-88
2022/06/14 09:45:41;;;;;;;2.40;1.30;;;27.80;40.20;;;;;;5067824;28;20476;-87
2022/06/14 09:48:32;;;;;;;2.93;1.37;;;27.80;40.40;;;;;;5071890;28;20499;-88
2022/06/14 09:51:33;;;;;;;3.53;1.33;;;27.80;40.50;;;;;;5071734;28;20466;-90
2022/06/14 09:54:31;;;;;;;3.93;1.40;;;27.80;40.70;;;;;;5055031;28;20436;-90
2022/06/14 09:57:19;;;;;;;7.40;1.50;;;27.90;40.50;;;;;;5071960;28;20504;-91
2022/06/14 10:00:02;;;;;;;3.60;1.77;;;28.10;40.50;;;;;;5072376;28;20499;-91
2022/06/14 10:02:41;;;;;;;2.27;1.60;;;28.30;40.30;;;;;;5072588;28;20431;-90
2022/06/14 10:05:18;;;;;;;8.03;2.10;;;28.50;39.90;;;;;;5072449;28;20441;-90
2022/06/14 10:07:53;;;;;;;3.17;1.60;;;28.50;39.80;;;;;;5071596;28;20528;-90
2022/06/14 10:10:43;;;;;;;2.30;1.30;;;28.40;39.90;;;;;;5071578;28;20507;-90
2022/06/14 10:13:29;;;;;;;6.47;1.70;;;28.30;39.90;;;;;;5071332;28;20465;-91
2022/06/14 10:16:01;;;;;;;2.60;1.60;;;28.30;40.00;;;;;;5071809;28;21027;-90
2022/06/14 10:18:41;;;;;;;2.20;1.33;;;28.20;40.10;;;;;;5071640;28;20449;-90
2022/06/14 10:21:11;;;;;;;4.63;1.80;;;28.20;40.30;;;;;;5071691;28;20546;-90
2022/06/14 10:23:53;;;;;;;4.43;1.70;;;28.20;40.40;;;;;;5071565;28;20517;-89
2022/06/14 10:29:24;;;;;;;4.07;1.37;;;28.20;40.40;;;;;;5071500;28;20452;-90
2022/06/14 10:32:03;;;;;;;3.23;1.63;;;28.20;40.40;;;;;;5073194;28;20477;-90
2022/06/14 10:34:32;;;;;;;3.60;1.47;;;28.30;40.40;;;;;;5071161;28;20445;-90
2022/06/14 10:37:13;;;;;;;6.73;1.60;;;28.30;40.30;;;;;;5071597;28;20524;-90
2022/06/14 10:40:14;;;;;;;4.40;2.20;;;28.30;40.20;;;;;;5071343;28;20533;-88
2022/06/14 10:42:46;;;;;;;6.83;1.77;;;28.40;40.30;;;;;;5071255;28;20464;-89
2022/06/14 10:45:16;;;;;;;6.53;2.10;;;28.50;40.20;;;;;;5071300;28;20442;-89
2022/06/14 10:48:10;;;;;;;4.30;2.10;;;28.70;40.20;;;;;;5071216;28;20533;-90
2022/06/14 10:50:57;;;;;;;6.70;1.93;;;28.80;39.90;;;;;;5071385;28;20469;-90
2022/06/14 10:53:31;;;;;;;4.90;1.50;;;28.80;39.80;;;;;;5071293;28;20521;-89
2022/06/14 10:56:29;;;;;;;3.23;1.60;;;28.70;39.80;;;;;;5071413;28;20469;-90
2022/06/14 10:59:20;;;;;;;4.70;1.70;;;28.70;39.90;;;;;;5071548;28;20536;-90
2022/06/14 11:01:51;;;;;;;3.00;1.70;;;28.60;39.90;;;;;;5074974;28;20515;-90
2022/06/14 11:04:22;;;;;;;4.50;1.50;;;28.60;40.10;;;;;;5074822;28;20438;-90
2022/06/14 11:07:10;;;;;;;6.13;1.63;;;28.60;40.20;;;;;;5075129;28;20444;-90
2022/06/14 11:09:46;;;;;;;6.70;2.07;;;28.50;40.10;;;;;;5074821;28;20411;-90
2022/06/14 11:12:27;;;;;;;2.93;1.43;;;28.50;40.20;;;;;;5075536;28;20454;-89
2022/06/14 11:15:02;;;;;;;9.17;2.00;;;28.40;40.20;;;;;;5074866;28;20416;-90
2022/06/14 11:17:54;;;;;;;2.70;1.40;;;28.50;40.20;;;;;;5075665;28;20424;-90
2022/06/14 11:20:28;;;;;;;3.00;1.77;;;28.50;40.20;;;;;;5077213;28;20452;-89
2022/06/14 11:22:59;;;;;;;3.90;1.50;;;28.50;40.20;;;;;;5075030;28;20492;-89
2022/06/14 11:25:34;;;;;;;5.70;1.90;;;28.50;40.20;;;;;;5074841;28;20449;-89
2022/06/14 11:28:05;;;;;;;2.80;2.00;;;28.60;40.20;;;;;;5075012;28;20904;-90
2022/06/14 11:30:41;;;;;;;2.47;1.70;;;28.70;40.00;;;;;;5074844;28;20560;-89
2022/06/14 11:33:14;;;;;;;3.23;2.00;;;28.70;39.80;;;;;;5074359;28;20461;-90
2022/06/14 11:36:07;;;;;;;1.83;1.47;;;28.70;39.90;;;;;;5074386;28;20446;-89
2022/06/14 11:39:06;;;;;;;4.27;1.50;;;28.70;39.90;;;;;;5067196;28;20546;-89
2022/06/14 11:41:37;;;;;;;2.27;1.97;;;28.70;39.80;;;;;;5074122;28;20481;-89
2022/06/14 11:44:13;;;;;;;4.17;1.93;;;28.70;39.90;;;;;;5074567;28;20944;-91
2022/06/14 11:46:45;;;;;;;5.23;1.50;;;28.60;40.00;;;;;;5074604;28;20450;-90
2022/06/14 11:49:16;;;;;;;4.43;1.63;;;28.60;40.00;;;;;;5074771;28;20495;-89
2022/06/14 11:51:50;;;;;;;3.00;1.20;;;28.60;40.00;;;;;;5073999;28;20569;-90
2022/06/14 11:54:20;;;;;;;15.23;1.70;;;28.60;40.70;;;;;;5074226;28;20441;-90
2022/06/14 11:56:55;;;;;;;10.90;1.70;;;28.60;40.10;;;;;;5074523;28;20499;-89
2022/06/14 11:59:37;;;;;;;2.20;1.73;;;28.60;40.10;;;;;;5074582;28;20441;-90
2022/06/14 12:02:17;;;;;;;1.50;1.40;;;28.60;40.10;;;;;;5074777;28;20532;-90
2022/06/14 12:04:50;;;;;;;2.50;1.73;;;28.60;40.20;;;;;;5073896;28;20490;-90
2022/06/14 12:07:21;;;;;;;3.40;1.43;;;28.50;40.20;;;;;;5074109;28;20449;-89
2022/06/14 12:10:20;;;;;;;6.57;1.63;;;28.50;40.10;;;;;;5073726;28;20446;-89
2022/06/14 12:12:54;;;;;;;3.33;1.80;;;28.60;40.10;;;;;;5073873;28;20516;-89
2022/06/14 12:15:24;;;;;;;3.53;1.53;;;28.50;40.10;;;;;;5073816;28;20468;-90
2022/06/14 12:17:55;;;;;;;1.97;1.37;;;28.50;40.20;;;;;;5076521;28;20461;-89
2022/06/14 12:20:25;;;;;;;1.93;1.30;;;28.50;40.10;;;;;;5084420;28;20499;-90
2022/06/14 12:22:58;;;;;;;2.70;1.33;;;28.50;40.20;;;;;;5081758;28;20466;-90
2022/06/14 12:28:21;;;;;;;2.50;1.40;;;28.50;40.20;;;;;;5074195;28;20436;-90
2022/06/14 12:30:50;;;;;;;1.37;1.10;;;28.50;40.20;;;;;;5074350;28;20473;-89
2022/06/14 12:33:29;;;;;;;1.90;1.47;;;28.50;40.20;;;;;;5073589;28;20484;-90
2022/06/14 12:36:02;;;;;;;2.30;1.47;;;28.50;40.20;;;;;;5073665;28;20530;-90
2022/06/14 12:38:32;;;;;;;2.40;1.60;;;28.50;40.10;;;;;;5073595;28;20445;-90
2022/06/14 12:41:04;;;;;;;3.87;1.47;;;28.60;40.10;;;;;;5073136;28;20449;-90
2022/06/14 12:43:36;;;;;;;1.53;1.40;;;28.60;40.20;;;;;;5073438;28;20446;-90
2022/06/14 12:46:06;;;;;;;2.10;1.30;;;28.60;40.20;;;;;;5073905;28;20913;-90
2022/06/14 12:48:38;;;;;;;4.57;1.33;;;28.60;40.10;;;;;;5073346;28;20509;-90
2022/06/14 12:51:16;;;;;;;1.93;1.30;;;28.60;40.00;;;;;;5073242;28;20421;-90
2022/06/14 12:53:47;;;;;;;1.57;1.47;;;28.70;40.10;;;;;;5073561;28;20508;-90
2022/06/14 12:56:18;;;;;;;3.07;1.33;;;28.70;40.00;;;;;;5073122;28;20477;-90
2022/06/14 12:58:51;;;;;;;3.23;1.50;;;28.70;40.00;;;;;;5073461;28;20806;-90
2022/06/14 13:01:24;;;;;;;2.67;1.20;;;28.80;39.90;;;;;;5073198;28;20472;-89
2022/06/14 13:03:56;;;;;;;2.50;1.53;;;28.80;39.80;;;;;;5072988;28;20442;-89
2022/06/14 13:06:39;;;;;;;1.63;1.40;;;29.00;39.70;;;;;;5073158;28;20512;-90
2022/06/14 13:09:10;;;;;;;1.70;1.60;;;29.10;39.60;;;;;;5073058;28;20698;-90
2022/06/14 13:11:41;;;;;;;3.27;1.47;;;29.20;39.60;;;;;;5072423;28;20476;-91
2022/06/14 13:14:10;;;;;;;2.60;1.27;;;29.30;39.40;;;;;;5072678;28;20481;-91
2022/06/14 13:16:51;;;;;;;2.00;1.37;;;29.50;39.30;;;;;;5072229;28;20976;-91
2022/06/14 13:19:23;;;;;;;1.47;1.00;;;29.70;39.10;;;;;;5072392;28;20388;-90
2022/06/14 13:22:11;;;;;;;2.90;1.33;;;29.80;38.90;;;;;;5071746;28;20532;-91
2022/06/14 13:24:45;;;;;;;2.57;1.50;;;29.90;38.40;;;;;;5072193;28;20430;-90
2022/06/14 13:27:18;;;;;;;1.50;1.40;;;29.90;38.50;;;;;;5071895;28;20456;-90
2022/06/14 13:29:55;;;;;;;2.57;1.30;;;30.00;38.40;;;;;;5072137;28;20530;-91
2022/06/14 13:32:48;;;;;;;2.00;1.10;;;30.00;38.30;;;;;;5071645;28;21091;-90